createdAt,value
2022-09-17T00:02:07.790Z,478.27
2022-09-17T00:04:34.209Z,461.20
2022-09-17T00:07:00.618Z,459.27
2022-09-17T00:09:27.019Z,475.83
2022-09-17T00:11:53.409Z,461.73
2022-09-17T00:14:19.832Z,451.37
2022-09-17T00:16:46.211Z,475.20
2022-09-17T00:19:12.612Z,477.40
2022-09-17T00:21:38.990Z,480.50
2022-09-17T00:24:05.381Z,458.80
2022-09-17T00:26:31.828Z,458.17
2022-09-17T00:28:58.341Z,471.83
2022-09-17T00:31:24.953Z,478.47
2022-09-17T00:33:51.393Z,460.57
2022-09-17T00:36:17.781Z,458.47
2022-09-17T00:38:44.189Z,449.07
2022-09-17T00:41:10.569Z,457.70
2022-09-17T00:43:36.977Z,459.80
2022-09-17T00:46:03.432Z,468.50
2022-09-17T00:48:29.889Z,473.37
2022-09-17T00:50:56.327Z,458.33
2022-09-17T00:53:22.745Z,450.73
2022-09-17T00:55:49.126Z,475.00
2022-09-17T00:58:15.531Z,474.10
2022-09-17T01:00:41.963Z,475.70
2022-09-17T01:03:08.436Z,477.40
2022-09-17T01:05:34.818Z,460.70
2022-09-17T01:08:01.230Z,452.23
2022-09-17T01:10:27.680Z,451.90
2022-09-17T01:12:54.089Z,459.17
2022-09-17T01:15:20.474Z,460.27
2022-09-17T01:17:46.915Z,458.57
2022-09-17T01:20:13.316Z,470.10
2022-09-17T01:22:39.718Z,461.53
2022-09-17T01:25:06.102Z,453.53
2022-09-17T01:27:32.517Z,473.20
2022-09-17T01:29:58.899Z,459.37
2022-09-17T01:32:25.309Z,454.40
2022-09-17T01:34:51.715Z,456.03
2022-09-17T01:37:18.113Z,475.80
2022-09-17T01:39:44.500Z,463.17
2022-09-17T01:42:10.910Z,472.53
2022-09-17T01:44:37.293Z,451.73
2022-09-17T01:47:03.701Z,471.30
2022-09-17T01:49:30.086Z,456.07
2022-09-17T01:51:56.474Z,452.47
2022-09-17T01:54:22.869Z,473.13
2022-09-17T01:56:49.277Z,471.73
2022-09-17T01:59:15.673Z,472.07
2022-09-17T02:01:42.113Z,473.83
2022-09-17T02:04:08.558Z,454.47
2022-09-17T02:06:34.955Z,448.37
2022-09-17T02:09:01.361Z,474.27
2022-09-17T02:11:27.761Z,476.10
2022-09-17T02:13:54.168Z,445.47
2022-09-17T02:16:20.596Z,478.93
2022-09-17T02:18:47.054Z,454.53
2022-09-17T02:21:13.458Z,468.50
2022-09-17T02:23:39.860Z,455.97
2022-09-17T02:26:06.253Z,452.33
2022-09-17T02:28:32.667Z,464.37
2022-09-17T02:30:59.124Z,476.17
2022-09-17T02:33:25.559Z,452.20
2022-09-17T02:35:51.935Z,470.57
2022-09-17T02:38:18.346Z,450.23
2022-09-17T02:40:44.740Z,447.33
2022-09-17T02:43:11.139Z,466.10
2022-09-17T02:45:37.518Z,466.17
2022-09-17T02:48:03.914Z,468.13
2022-09-17T02:50:30.310Z,449.27
2022-09-17T02:52:56.720Z,458.77
2022-09-17T02:55:23.108Z,451.33
2022-09-17T02:57:49.533Z,472.37
2022-09-17T03:00:15.931Z,460.10
2022-09-17T03:02:42.345Z,479.73
2022-09-17T03:05:08.830Z,455.80
2022-09-17T03:07:35.240Z,453.90
2022-09-17T03:10:01.632Z,454.27
2022-09-17T03:12:28.044Z,463.20
2022-09-17T03:14:54.437Z,475.10
2022-09-17T03:17:20.854Z,459.77
2022-09-17T03:19:47.248Z,456.83
2022-09-17T03:22:13.671Z,451.17
2022-09-17T03:24:40.070Z,456.93
2022-09-17T03:27:06.453Z,478.00
2022-09-17T03:29:32.871Z,458.93
2022-09-17T03:31:59.280Z,467.53
2022-09-17T03:34:25.696Z,475.10
2022-09-17T03:36:52.102Z,473.80
2022-09-17T03:39:18.579Z,481.13
2022-09-17T03:41:44.977Z,454.27
2022-09-17T03:44:11.382Z,456.43
2022-09-17T03:46:37.806Z,475.30
2022-09-17T03:49:04.319Z,452.73
2022-09-17T03:51:30.721Z,460.43
2022-09-17T03:53:57.175Z,456.63
2022-09-17T03:56:23.665Z,455.67
2022-09-17T03:58:50.072Z,474.73
2022-09-17T04:01:16.481Z,459.07
2022-09-17T04:03:42.941Z,454.60
2022-09-17T04:06:09.310Z,458.73
2022-09-17T04:08:35.764Z,448.33
2022-09-17T04:11:02.155Z,472.10
2022-09-17T04:13:28.547Z,476.13
2022-09-17T04:15:54.975Z,457.40
2022-09-17T04:18:21.510Z,474.87
2022-09-17T04:20:47.908Z,476.40
2022-09-17T04:23:14.317Z,477.13
2022-09-17T04:25:40.698Z,474.63
2022-09-17T04:28:07.099Z,471.60
2022-09-17T04:30:33.497Z,457.13
2022-09-17T04:32:59.908Z,478.10
2022-09-17T04:35:26.324Z,475.33
2022-09-17T04:37:52.727Z,478.83
2022-09-17T04:40:19.160Z,459.30
2022-09-17T04:42:45.601Z,453.07
2022-09-17T04:45:12.008Z,454.73
2022-09-17T04:47:38.395Z,450.57
2022-09-17T04:50:04.767Z,451.00
2022-09-17T04:52:31.250Z,476.53
2022-09-17T04:54:57.637Z,474.20
2022-09-17T04:57:24.059Z,474.17
2022-09-17T04:59:50.475Z,477.23
2022-09-17T05:02:16.898Z,464.93
2022-09-17T05:04:43.322Z,471.63
2022-09-17T05:07:13.261Z,468.33
2022-09-17T05:09:40.309Z,448.60
2022-09-17T05:12:06.701Z,467.20
2022-09-17T05:14:33.109Z,463.23
2022-09-17T05:16:59.502Z,454.87
2022-09-17T05:19:25.895Z,452.43
2022-09-17T05:21:52.293Z,475.57
2022-09-17T05:24:18.700Z,471.67
2022-09-17T05:26:45.110Z,451.23
2022-09-17T05:29:11.513Z,452.70
2022-09-17T05:31:37.942Z,453.57
2022-09-17T05:34:04.392Z,472.17
2022-09-17T05:36:30.776Z,451.40
2022-09-17T05:38:57.226Z,460.57
2022-09-17T05:41:23.712Z,475.70
2022-09-17T05:43:50.125Z,450.27
2022-09-17T05:46:16.547Z,460.27
2022-09-17T05:48:42.995Z,455.73
2022-09-17T05:51:09.396Z,455.00
2022-09-17T05:53:35.816Z,464.60
2022-09-17T05:56:02.219Z,448.90
2022-09-17T05:58:28.709Z,448.07
2022-09-17T06:00:55.091Z,471.27
2022-09-17T06:03:21.556Z,451.77
2022-09-17T06:05:47.963Z,467.53
2022-09-17T06:08:14.386Z,461.00
2022-09-17T06:10:40.945Z,468.10
2022-09-17T06:13:07.709Z,469.00
2022-09-17T06:15:37.131Z,473.90
2022-09-17T06:18:03.660Z,451.33
2022-09-17T06:20:30.124Z,474.13
2022-09-17T06:22:56.551Z,456.13
2022-09-17T06:25:23.136Z,470.43
2022-09-17T06:27:49.600Z,469.57
2022-09-17T06:30:16.060Z,474.10
2022-09-17T06:32:42.483Z,456.83
2022-09-17T06:35:08.860Z,469.23
2022-09-17T06:37:35.258Z,451.17
2022-09-17T06:40:01.667Z,467.67
2022-09-17T06:42:33.417Z,466.93
2022-09-17T06:45:07.999Z,451.17
2022-09-17T06:47:35.908Z,471.10
2022-09-17T06:50:02.325Z,474.83
2022-09-17T06:52:30.284Z,462.23
2022-09-17T06:55:04.031Z,468.07
2022-09-17T06:57:30.465Z,471.33
2022-09-17T06:59:56.896Z,454.27
2022-09-17T07:02:23.394Z,450.63
2022-09-17T07:04:49.839Z,458.27
2022-09-17T07:07:16.227Z,452.93
2022-09-17T07:09:42.654Z,478.20
2022-09-17T07:12:09.041Z,475.73
2022-09-17T07:14:35.457Z,455.83
2022-09-17T07:17:01.883Z,448.43
2022-09-17T07:19:28.287Z,467.80
2022-09-17T07:21:54.696Z,449.77
2022-09-17T07:24:21.127Z,452.30
2022-09-17T07:26:47.532Z,473.13
2022-09-17T07:29:13.962Z,473.00
2022-09-17T07:31:45.601Z,471.33
2022-09-17T07:34:12.191Z,442.63
2022-09-17T07:36:38.800Z,444.97
2022-09-17T07:39:05.259Z,474.00
2022-09-17T07:41:31.784Z,449.33
2022-09-17T07:43:58.421Z,455.73
2022-09-17T07:46:24.918Z,463.10
2022-09-17T07:48:52.726Z,470.60
2022-09-17T07:51:19.200Z,473.73
2022-09-17T07:53:48.658Z,454.40
2022-09-17T07:56:15.405Z,452.43
2022-09-17T07:58:42.163Z,476.93
2022-09-17T08:01:08.725Z,453.07
2022-09-17T08:03:35.248Z,455.43
2022-09-17T08:35:40.254Z,470.30
2022-09-17T08:38:06.762Z,450.10
2022-09-17T08:40:35.271Z,479.20
2022-09-17T08:43:01.757Z,453.23
2022-09-17T08:45:28.151Z,454.30
2022-09-17T08:47:54.558Z,453.87
2022-09-17T08:50:20.937Z,475.40
2022-09-17T08:52:47.360Z,474.40
2022-09-17T08:55:13.753Z,462.20
2022-09-17T08:57:40.210Z,467.07
2022-09-17T09:00:06.620Z,478.17
2022-09-17T09:02:33.204Z,474.50
2022-09-17T09:04:59.762Z,446.33
2022-09-17T09:07:26.175Z,473.53
2022-09-17T09:09:52.600Z,467.13
2022-09-17T09:12:19.011Z,451.67
2022-09-17T09:14:45.427Z,452.23
2022-09-17T09:17:11.825Z,476.97
2022-09-17T09:19:38.264Z,458.10
2022-09-17T09:22:04.683Z,470.10
2022-09-17T09:24:31.129Z,459.90
2022-09-17T09:26:58.708Z,452.40
2022-09-17T09:29:25.304Z,453.70
2022-09-17T09:31:53.088Z,471.80
2022-09-17T09:34:19.564Z,471.90
2022-09-17T09:36:45.963Z,473.37
2022-09-17T09:39:12.415Z,475.27
2022-09-17T09:41:38.840Z,467.83
2022-09-17T09:44:05.683Z,458.63
2022-09-17T09:46:32.267Z,456.97
2022-09-17T09:48:58.777Z,449.50
2022-09-17T09:51:25.211Z,467.43
2022-09-17T09:53:51.607Z,468.03
2022-09-17T09:56:18.003Z,462.13
2022-09-17T09:58:45.083Z,457.03
2022-09-17T10:01:11.504Z,465.77
2022-09-17T10:03:37.921Z,476.93
2022-09-17T10:06:04.336Z,480.00
2022-09-17T10:08:31.023Z,460.03
2022-09-17T10:10:57.426Z,456.57
2022-09-17T10:13:23.866Z,475.13
2022-09-17T10:15:56.167Z,485.73
2022-09-17T10:18:22.630Z,480.03
2022-09-17T10:20:49.071Z,462.27
2022-09-17T10:23:15.484Z,451.73
2022-09-17T10:25:41.885Z,481.03
2022-09-17T10:28:08.316Z,475.43
2022-09-17T10:30:34.742Z,457.70
2022-09-17T10:33:01.482Z,469.53
2022-09-17T10:35:27.887Z,466.67
2022-09-17T10:37:54.306Z,453.10
2022-09-17T10:40:20.768Z,452.80
2022-09-17T10:42:47.280Z,472.73
2022-09-17T10:45:13.716Z,459.53
2022-09-17T10:47:40.126Z,467.33
2022-09-17T10:50:06.535Z,449.53
2022-09-17T10:52:32.921Z,454.07
2022-09-17T10:54:59.338Z,480.27
2022-09-17T10:57:25.831Z,472.63
2022-09-17T10:59:52.284Z,455.10
2022-09-17T11:02:18.908Z,478.93
2022-09-17T11:04:45.514Z,475.40
2022-09-17T11:07:11.920Z,449.00
2022-09-17T11:09:38.329Z,454.03
2022-09-17T11:12:04.735Z,468.33
2022-09-17T11:14:31.124Z,474.53
2022-09-17T11:16:57.583Z,448.80
2022-09-17T11:19:24.046Z,474.67
2022-09-17T11:21:50.524Z,477.10
2022-09-17T11:24:16.914Z,481.97
2022-09-17T11:26:43.347Z,451.93
2022-09-17T11:29:09.779Z,459.60
2022-09-17T11:31:36.297Z,476.70
2022-09-17T11:34:02.795Z,449.83
2022-09-17T11:36:29.191Z,476.27
2022-09-17T11:38:55.643Z,454.60
2022-09-17T11:41:22.024Z,458.20
2022-09-17T11:43:48.487Z,475.80
2022-09-17T11:46:14.935Z,450.30
2022-09-17T11:48:41.429Z,447.60
2022-09-17T11:51:07.827Z,448.33
2022-09-17T11:53:34.228Z,456.33
2022-09-17T11:56:00.697Z,470.53
2022-09-17T11:58:27.086Z,451.83
2022-09-17T12:00:53.467Z,470.37
2022-09-17T12:03:19.934Z,480.13
2022-09-17T12:05:46.355Z,479.83
2022-09-17T12:08:14.878Z,334.33
2022-09-17T12:10:41.471Z,406.63
2022-09-17T12:13:07.882Z,428.50
2022-09-17T12:15:34.301Z,442.20
2022-09-17T12:18:27.691Z,436.27
2022-09-17T12:20:47.097Z,413.17
2022-09-17T12:23:13.502Z,412.47
2022-09-17T12:25:39.878Z,403.63
2022-09-17T12:28:06.322Z,406.67
2022-09-17T12:30:32.714Z,415.03
2022-09-17T12:32:59.110Z,408.30
2022-09-17T12:35:36.468Z,412.27
2022-09-17T12:38:11.908Z,401.87
2022-09-17T12:40:38.355Z,407.87
2022-09-17T12:43:04.794Z,417.63
2022-09-17T12:45:31.178Z,408.63
2022-09-17T12:47:59.237Z,401.20
2022-09-17T12:50:25.633Z,402.90
2022-09-17T12:52:52.066Z,425.87
2022-09-17T12:55:18.469Z,399.03
2022-09-17T12:57:44.900Z,399.37
2022-09-17T13:00:11.362Z,413.40
2022-09-17T13:02:37.758Z,420.83
2022-09-17T13:05:04.164Z,416.97
2022-09-17T13:07:30.563Z,412.57
2022-09-17T13:09:57.183Z,412.77
2022-09-17T13:12:23.574Z,413.23
2022-09-17T13:14:50.022Z,424.63
2022-09-17T13:17:16.419Z,420.77
2022-09-17T13:22:03.970Z,411.90
2022-09-17T13:24:30.390Z,436.97
2022-09-17T13:26:56.777Z,427.47
2022-09-17T13:29:23.178Z,426.37
2022-09-17T13:31:49.614Z,451.63
2022-09-17T13:34:16.066Z,435.57
2022-09-17T13:36:42.457Z,443.47
2022-09-17T13:39:08.867Z,461.20
2022-09-17T13:41:35.265Z,452.73
2022-09-17T13:44:01.655Z,426.43
2022-09-17T13:46:28.154Z,456.53
2022-09-17T13:48:54.645Z,466.43
2022-09-17T13:51:21.044Z,457.93
2022-09-17T13:53:47.485Z,456.93
2022-09-17T13:56:13.979Z,457.17
2022-09-17T13:58:40.418Z,460.13
2022-09-17T14:01:06.877Z,454.43
2022-09-17T14:03:33.432Z,461.77
2022-09-17T14:05:59.827Z,464.77
2022-09-17T14:08:26.232Z,442.23
2022-09-17T14:10:52.614Z,436.10
2022-09-17T14:13:19.017Z,443.50
2022-09-17T14:15:45.438Z,441.20
2022-09-17T14:18:11.867Z,441.23
2022-09-17T14:20:38.373Z,473.83
2022-09-17T14:23:04.887Z,470.63
2022-09-17T14:25:31.445Z,473.37
2022-09-17T14:27:58.043Z,479.77
2022-09-17T14:30:24.438Z,436.47
2022-09-17T14:32:50.873Z,468.57
2022-09-17T14:35:20.203Z,462.93
2022-09-17T14:37:46.805Z,458.33
2022-09-17T14:40:13.288Z,456.87
2022-09-17T14:42:39.713Z,454.97
2022-09-17T14:45:06.122Z,454.63
2022-09-17T14:47:32.524Z,443.30
2022-09-17T14:49:58.912Z,462.93
2022-09-17T14:52:25.317Z,454.23
2022-09-17T14:54:51.732Z,444.73
2022-09-17T14:57:18.115Z,473.87
2022-09-17T14:59:44.519Z,462.13
2022-09-17T15:02:11.020Z,452.97
2022-09-17T15:04:37.447Z,460.63
2022-09-17T15:07:03.824Z,464.07
2022-09-17T15:09:30.215Z,457.87
2022-09-17T15:11:56.612Z,448.53
2022-09-17T15:14:22.998Z,467.27
2022-09-17T15:16:49.449Z,464.67
2022-09-17T15:19:15.868Z,458.73
2022-09-17T15:21:42.269Z,442.43
2022-09-17T15:24:08.731Z,445.37
2022-09-17T15:26:35.164Z,445.80
2022-09-17T15:29:01.567Z,465.97
2022-09-17T15:31:28.035Z,466.33
2022-09-17T15:33:54.459Z,452.20
2022-09-17T15:36:20.843Z,466.17
2022-09-17T15:38:47.245Z,460.33
2022-09-17T15:41:15.671Z,472.63
2022-09-17T15:43:45.186Z,478.23
2022-09-17T15:46:11.594Z,447.37
2022-09-17T15:48:38.016Z,449.03
2022-09-17T15:51:04.420Z,446.07
2022-09-17T15:53:30.907Z,465.90
2022-09-17T15:55:57.351Z,491.97
2022-09-17T15:58:23.844Z,470.53
2022-09-17T16:00:50.254Z,460.93
2022-09-17T16:03:16.685Z,461.20
2022-09-17T16:05:43.087Z,451.20
2022-09-17T16:08:09.520Z,450.00
2022-09-17T16:10:35.910Z,456.23
2022-09-17T16:13:02.370Z,465.83
2022-09-17T16:15:28.757Z,475.33
2022-09-17T16:17:55.212Z,474.77
2022-09-17T16:20:21.619Z,452.80
2022-09-17T16:22:48.122Z,454.43
2022-09-17T16:25:14.598Z,478.23
2022-09-17T16:27:41.139Z,480.27
2022-09-17T16:30:07.548Z,477.13
2022-09-17T16:32:34.047Z,495.37
2022-09-17T16:35:00.450Z,479.13
2022-09-17T16:37:26.868Z,459.10
2022-09-17T16:39:53.431Z,468.13
2022-09-17T16:42:19.902Z,482.03
2022-09-17T16:44:46.443Z,470.50
2022-09-17T16:47:12.863Z,466.17
2022-09-17T16:49:39.287Z,479.23
2022-09-17T16:52:05.731Z,484.30
2022-09-17T16:54:32.173Z,475.03
2022-09-17T16:56:58.646Z,477.90
2022-09-17T16:59:25.105Z,481.23
2022-09-17T17:01:51.526Z,456.57
2022-09-17T17:04:19.941Z,483.30
2022-09-17T17:06:46.416Z,481.73
2022-09-17T17:09:12.879Z,476.50
2022-09-17T17:11:39.318Z,467.37
2022-09-17T17:14:05.761Z,466.83
2022-09-17T17:16:32.219Z,494.43
2022-09-17T17:18:58.794Z,479.97
2022-09-17T17:21:25.232Z,470.43
2022-09-17T17:23:51.633Z,492.13
2022-09-17T17:26:18.028Z,502.43
2022-09-17T17:28:44.414Z,488.33
2022-09-17T17:31:10.875Z,456.63
2022-09-17T17:33:37.338Z,482.80
2022-09-17T17:36:07.916Z,490.80
2022-09-17T17:38:34.972Z,474.67
2022-09-17T17:41:01.431Z,499.47
2022-09-17T17:43:27.880Z,489.30
2022-09-17T17:45:54.268Z,497.97
2022-09-17T17:48:20.976Z,483.40
2022-09-17T17:50:47.401Z,487.53
2022-09-17T17:53:13.809Z,491.10
2022-09-17T17:55:40.196Z,491.47
2022-09-17T17:58:06.612Z,482.00
2022-09-17T18:00:32.993Z,493.27
2022-09-17T18:02:59.507Z,500.87
2022-09-17T18:05:25.979Z,497.40
2022-09-17T18:07:52.411Z,487.80
2022-09-17T18:10:18.881Z,471.23
2022-09-17T18:12:47.388Z,500.10
2022-09-17T18:15:13.805Z,489.50
2022-09-17T18:17:40.216Z,478.77
2022-09-17T18:20:06.662Z,500.07
2022-09-17T18:22:33.109Z,507.23
2022-09-17T18:24:59.538Z,502.03
2022-09-17T18:27:25.966Z,496.17
2022-09-17T18:29:52.382Z,478.20
2022-09-17T18:32:18.810Z,484.00
2022-09-17T18:34:45.198Z,465.37
2022-09-17T18:37:11.600Z,481.47
2022-09-17T18:39:58.139Z,463.70
2022-09-17T18:42:24.406Z,462.20
2022-09-17T18:44:50.868Z,463.70
2022-09-17T18:47:17.259Z,482.93
2022-09-17T18:49:43.670Z,465.77
2022-09-17T18:52:10.080Z,485.80
2022-09-17T18:54:36.535Z,484.97
2022-09-17T18:57:02.957Z,494.73
2022-09-17T18:59:29.390Z,484.93
2022-09-17T19:01:55.825Z,484.43
2022-09-17T19:04:22.361Z,485.37
2022-09-17T19:06:48.760Z,483.83
2022-09-17T19:09:18.571Z,487.20
2022-09-17T19:11:44.973Z,475.37
2022-09-17T19:14:11.431Z,487.60
2022-09-17T19:16:38.010Z,464.07
2022-09-17T19:19:04.419Z,476.30
2022-09-17T19:21:30.814Z,487.10
2022-09-17T19:23:57.204Z,500.17
2022-09-17T19:26:23.591Z,468.53
2022-09-17T19:28:50.001Z,489.53
2022-09-17T19:31:16.439Z,498.77
2022-09-17T19:33:42.883Z,474.07
2022-09-17T19:36:09.286Z,476.03
2022-09-17T19:38:35.892Z,483.43
2022-09-17T19:41:02.308Z,475.77
2022-09-17T19:43:28.699Z,466.17
2022-09-17T19:45:55.216Z,462.73
2022-09-17T19:48:25.167Z,467.03
2022-09-17T19:50:51.897Z,461.43
2022-09-17T19:53:18.283Z,484.33
2022-09-17T19:55:44.697Z,463.37
2022-09-17T19:58:11.133Z,489.07
2022-09-17T20:00:37.578Z,489.50
2022-09-17T20:03:04.058Z,488.67
2022-09-17T20:05:30.566Z,488.53
2022-09-17T20:07:57.034Z,490.63
2022-09-17T20:10:23.456Z,467.83
2022-09-17T20:12:49.841Z,485.30
2022-09-17T20:15:16.263Z,488.33
2022-09-17T20:17:42.671Z,517.70
2022-09-17T20:20:09.075Z,487.73
2022-09-17T20:22:35.498Z,489.53
2022-09-17T20:25:01.907Z,485.97
2022-09-17T20:27:28.317Z,477.27
2022-09-17T20:29:54.735Z,485.40
2022-09-17T20:32:21.118Z,484.77
2022-09-17T20:34:47.564Z,470.87
2022-09-17T20:37:14.079Z,487.37
2022-09-17T20:39:40.523Z,491.43
2022-09-17T20:42:06.935Z,492.10
2022-09-17T20:44:33.350Z,487.33
2022-09-17T20:46:59.813Z,471.67
2022-09-17T20:49:26.295Z,491.33
2022-09-17T20:51:52.673Z,470.17
2022-09-17T20:54:19.069Z,476.77
2022-09-17T20:56:45.455Z,462.90
2022-09-17T20:59:11.849Z,475.00
2022-09-17T21:01:38.287Z,493.53
2022-09-17T21:04:04.891Z,491.00
2022-09-17T21:06:31.356Z,482.90
2022-09-17T21:08:57.773Z,493.03
2022-09-17T21:11:24.181Z,497.27
2022-09-17T21:13:50.594Z,496.07
2022-09-17T21:16:17.082Z,468.83
2022-09-17T21:18:43.545Z,491.43
2022-09-17T21:21:10.157Z,488.20
2022-09-17T21:23:36.576Z,467.60
2022-09-17T21:26:03.191Z,483.17
2022-09-17T21:28:29.627Z,468.20
2022-09-17T21:30:56.114Z,466.90
2022-09-17T21:33:22.565Z,468.23
2022-09-17T21:35:48.987Z,482.90
2022-09-17T21:38:15.528Z,466.00
2022-09-17T21:40:43.984Z,467.53
2022-09-17T21:43:10.624Z,486.40
2022-09-17T21:45:37.035Z,492.87
2022-09-17T21:48:03.440Z,496.30
2022-09-17T21:50:29.845Z,490.60
2022-09-17T21:52:56.246Z,498.47
2022-09-17T21:55:22.660Z,480.83
2022-09-17T21:57:49.047Z,491.43
2022-09-17T22:00:18.122Z,508.37
2022-09-17T22:02:47.666Z,491.43
2022-09-17T22:05:14.090Z,489.43
2022-09-17T22:07:40.484Z,471.97
2022-09-17T22:10:06.913Z,492.00
2022-09-17T22:12:33.347Z,508.23
2022-09-17T22:14:59.752Z,464.90
2022-09-17T22:17:26.167Z,490.13
2022-09-17T22:19:52.604Z,489.23
2022-09-17T22:22:19.031Z,497.80
2022-09-17T22:24:45.431Z,467.27
2022-09-17T22:27:11.836Z,489.13
2022-09-17T22:29:38.234Z,489.97
2022-09-17T22:32:04.626Z,474.37
2022-09-17T22:34:31.039Z,488.23
2022-09-17T22:36:57.444Z,491.30
2022-09-17T22:39:23.856Z,468.77
2022-09-17T22:41:50.253Z,484.47
2022-09-17T22:44:16.725Z,484.80
2022-09-17T22:46:43.278Z,487.13
2022-09-17T22:49:09.736Z,501.63
2022-09-17T22:51:36.152Z,488.67
2022-09-17T22:54:02.632Z,464.70
2022-09-17T22:56:29.087Z,484.77
2022-09-17T22:58:55.514Z,490.97
2022-09-17T23:01:22.035Z,492.10
2022-09-17T23:03:48.568Z,487.13
2022-09-17T23:06:15.012Z,491.83
2022-09-17T23:08:41.415Z,471.00
2022-09-17T23:11:07.857Z,498.07
2022-09-17T23:13:34.274Z,496.07
2022-09-17T23:16:00.771Z,493.70
2022-09-17T23:18:27.205Z,485.40
2022-09-17T23:20:53.616Z,463.60
2022-09-17T23:23:24.414Z,489.97
2022-09-17T23:25:51.069Z,488.30
2022-09-17T23:28:17.488Z,486.73
2022-09-17T23:30:43.949Z,469.63
2022-09-17T23:33:10.380Z,465.33
2022-09-17T23:35:36.794Z,491.00
2022-09-17T23:38:03.180Z,468.70
2022-09-17T23:40:29.597Z,466.43
2022-09-17T23:42:56.026Z,488.17
2022-09-17T23:45:22.454Z,471.17
2022-09-17T23:47:48.886Z,469.07
2022-09-17T23:50:15.312Z,468.70
2022-09-17T23:52:41.768Z,489.83
2022-09-17T23:55:08.173Z,483.70
2022-09-17T23:57:34.721Z,479.60
